createdAt,value
2022-11-05T00:02:36.260Z,0.75
2022-11-05T00:05:21.745Z,0.75
2022-11-05T00:08:09.982Z,1.30
2022-11-05T00:10:39.890Z,2.20
2022-11-05T00:13:27.363Z,1.25
2022-11-05T00:16:14.331Z,1.00
2022-11-05T00:18:42.632Z,1.17
2022-11-05T00:21:31.304Z,0.90
2022-11-05T00:24:21.744Z,1.00
2022-11-05T00:26:52.179Z,0.80
2022-11-05T00:29:20.419Z,1.40
2022-11-05T00:31:50.072Z,0.82
2022-11-05T00:34:18.127Z,1.63
2022-11-05T00:36:46.196Z,0.90
2022-11-05T00:39:14.337Z,1.05
2022-11-05T00:41:42.595Z,1.33
2022-11-05T00:44:42.746Z,1.10
2022-11-05T00:47:26.090Z,1.50
2022-11-05T00:49:54.181Z,2.15
2022-11-05T00:52:42.048Z,1.35
2022-11-05T00:55:10.265Z,2.08
2022-11-05T00:57:38.617Z,1.63
2022-11-05T01:00:08.003Z,2.53
2022-11-05T01:02:37.782Z,1.90
2022-11-05T01:05:06.797Z,2.15
2022-11-05T01:07:34.900Z,2.55
2022-11-05T01:10:03.083Z,3.13
2022-11-05T01:12:32.633Z,2.35
2022-11-05T01:15:02.149Z,2.67
2022-11-05T01:17:30.322Z,2.50
2022-11-05T01:19:59.950Z,2.63
2022-11-05T01:22:28.299Z,2.55
2022-11-05T01:24:56.348Z,2.78
2022-11-05T01:27:24.711Z,1.90
2022-11-05T01:29:52.793Z,1.40
2022-11-05T01:32:20.934Z,1.83
2022-11-05T01:34:49.554Z,1.83
2022-11-05T01:37:19.011Z,1.60
2022-11-05T01:39:47.155Z,2.20
2022-11-05T01:42:20.295Z,2.33
2022-11-05T01:44:57.152Z,1.95
2022-11-05T01:47:40.346Z,1.20
2022-11-05T01:50:29.307Z,1.35
2022-11-05T01:53:03.924Z,1.02
2022-11-05T01:55:36.673Z,1.20
2022-11-05T01:58:08.459Z,1.73
2022-11-05T02:00:37.743Z,1.83
2022-11-05T02:03:06.313Z,1.40
2022-11-05T02:05:35.306Z,1.50
2022-11-05T02:08:05.388Z,1.23
2022-11-05T02:10:34.310Z,1.10
2022-11-05T02:13:03.778Z,1.27
2022-11-05T02:15:41.416Z,2.10
2022-11-05T02:18:19.898Z,0.90
2022-11-05T02:20:58.936Z,1.20
2022-11-05T02:23:58.018Z,1.55
2022-11-05T02:26:58.926Z,0.90
2022-11-05T02:30:11.135Z,1.00
2022-11-05T02:32:51.767Z,1.23
2022-11-05T02:35:33.309Z,1.08
2022-11-05T02:38:08.138Z,1.05
2022-11-05T02:40:44.117Z,0.80
2022-11-05T02:43:17.386Z,0.90
2022-11-05T02:45:53.085Z,0.75
2022-11-05T02:48:27.650Z,1.10
2022-11-05T02:51:00.883Z,0.57
2022-11-05T02:53:39.388Z,1.15
2022-11-05T02:56:12.426Z,0.90
2022-11-05T02:58:40.542Z,0.93
2022-11-05T03:01:12.680Z,0.80
2022-11-05T03:03:44.731Z,1.52
2022-11-05T03:06:50.098Z,0.80
2022-11-05T03:09:46.563Z,1.23
2022-11-05T03:12:27.450Z,0.80
2022-11-05T03:15:04.330Z,0.88
2022-11-05T03:17:40.268Z,0.65
2022-11-05T03:20:17.757Z,0.77
2022-11-05T03:22:52.827Z,0.63
2022-11-05T03:25:23.966Z,0.85
2022-11-05T03:27:57.655Z,0.70
2022-11-05T03:30:26.621Z,0.90
2022-11-05T03:33:05.713Z,0.70
2022-11-05T03:35:39.224Z,1.27
2022-11-05T03:38:12.211Z,0.80
2022-11-05T03:40:42.663Z,1.10
2022-11-05T03:43:11.274Z,0.85
2022-11-05T03:45:45.256Z,1.27
2022-11-05T03:48:17.106Z,1.35
2022-11-05T03:50:54.059Z,1.13
2022-11-05T03:53:26.524Z,1.02
2022-11-05T03:56:00.663Z,1.10
2022-11-05T03:58:30.389Z,0.95
2022-11-05T04:01:02.305Z,1.50
2022-11-05T04:03:36.320Z,1.38
2022-11-05T04:06:25.058Z,0.90
2022-11-05T04:09:10.876Z,1.05
2022-11-05T04:11:56.627Z,1.00
2022-11-05T04:14:26.301Z,1.13
2022-11-05T04:17:10.115Z,1.15
2022-11-05T04:19:53.501Z,0.85
2022-11-05T04:22:40.699Z,0.95
2022-11-05T04:25:09.440Z,1.52
2022-11-05T04:27:37.952Z,0.73
2022-11-05T04:30:22.886Z,0.60
2022-11-05T04:33:02.889Z,1.10
2022-11-05T04:35:32.831Z,0.55
2022-11-05T04:38:03.122Z,0.85
2022-11-05T04:40:31.266Z,0.88
2022-11-05T04:42:59.932Z,1.02
2022-11-05T04:45:30.594Z,0.57
2022-11-05T04:47:59.467Z,0.60
2022-11-05T04:50:27.616Z,0.77
2022-11-05T04:52:55.786Z,0.75
2022-11-05T04:55:25.764Z,0.63
2022-11-05T04:57:55.341Z,0.50
2022-11-05T05:00:24.821Z,1.10
2022-11-05T05:02:52.988Z,0.73
2022-11-05T05:05:22.135Z,0.50
2022-11-05T05:07:50.335Z,0.60
2022-11-05T05:10:18.509Z,0.55
2022-11-05T05:12:48.632Z,0.40
2022-11-05T05:15:16.870Z,0.50
2022-11-05T05:17:45.093Z,0.60
2022-11-05T05:20:32.844Z,0.40
2022-11-05T05:23:00.952Z,0.47
2022-11-05T05:25:29.213Z,0.63
2022-11-05T05:27:59.520Z,0.68
2022-11-05T05:30:27.600Z,0.40
2022-11-05T05:32:55.687Z,0.60
2022-11-05T05:35:23.940Z,0.40
2022-11-05T05:37:56.854Z,0.40
2022-11-05T05:40:25.449Z,0.40
2022-11-05T05:42:55.477Z,0.43
2022-11-05T05:45:25.063Z,0.52
2022-11-05T05:47:53.282Z,0.40
2022-11-05T05:50:21.764Z,0.40
2022-11-05T05:52:49.991Z,0.25
2022-11-05T05:55:18.089Z,0.47
2022-11-05T05:57:46.231Z,0.55
2022-11-05T06:00:15.487Z,0.52
2022-11-05T06:02:45.287Z,0.20
2022-11-05T06:05:13.482Z,0.28
2022-11-05T06:07:41.638Z,0.30
2022-11-05T06:10:10.427Z,0.43
2022-11-05T06:12:38.554Z,0.10
2022-11-05T06:15:07.583Z,0.17
2022-11-05T06:17:35.795Z,0.10
2022-11-05T06:20:06.114Z,0.10
2022-11-05T06:22:34.217Z,0.10
2022-11-05T06:25:02.483Z,0.05
2022-11-05T06:27:30.629Z,0.22
2022-11-05T06:29:58.774Z,0.25
2022-11-05T06:32:27.014Z,0.20
2022-11-05T06:34:55.213Z,0.20
2022-11-05T06:37:24.849Z,0.00
2022-11-05T06:39:52.978Z,0.20
2022-11-05T06:42:21.133Z,0.30
2022-11-05T06:44:49.239Z,0.20
2022-11-05T06:47:17.338Z,0.00
2022-11-05T06:49:45.722Z,0.00
2022-11-05T06:52:15.323Z,0.10
2022-11-05T06:54:45.443Z,0.15
2022-11-05T06:57:14.501Z,0.00
2022-11-05T06:59:42.807Z,0.08
2022-11-05T07:02:12.929Z,0.10
2022-11-05T07:04:41.167Z,0.10
2022-11-05T07:07:09.255Z,0.10
2022-11-05T07:09:40.591Z,0.10
2022-11-05T07:12:10.517Z,0.10
2022-11-05T07:14:38.624Z,0.57
2022-11-05T07:17:06.783Z,0.00
2022-11-05T07:19:34.997Z,0.00
2022-11-05T07:22:03.128Z,0.10
2022-11-05T07:24:31.393Z,2.03
2022-11-05T07:26:59.626Z,1.15
2022-11-05T07:29:29.231Z,0.50
2022-11-05T07:31:57.401Z,0.22
2022-11-05T07:34:25.611Z,0.10
2022-11-05T07:36:53.714Z,0.10
2022-11-05T07:39:22.198Z,0.10
2022-11-05T07:41:50.230Z,0.00
2022-11-05T07:44:18.407Z,0.10
2022-11-05T07:46:48.079Z,0.20
2022-11-05T07:49:16.304Z,0.03
2022-11-05T07:51:44.597Z,0.08
2022-11-05T07:54:12.818Z,0.20
2022-11-05T07:56:41.085Z,0.10
2022-11-05T07:59:09.179Z,0.03
2022-11-05T08:01:37.619Z,0.00
2022-11-05T08:04:07.364Z,0.10
2022-11-05T08:06:35.699Z,0.10
2022-11-05T08:09:03.952Z,0.10
2022-11-05T08:11:32.842Z,0.08
2022-11-05T08:14:00.992Z,0.10
2022-11-05T08:16:29.172Z,0.00
2022-11-05T08:18:57.276Z,0.10
2022-11-05T08:21:26.872Z,0.00
2022-11-05T08:23:55.038Z,0.20
2022-11-05T08:26:23.185Z,0.00
2022-11-05T08:28:51.327Z,0.10
2022-11-05T08:31:19.513Z,0.00
2022-11-05T08:33:47.690Z,0.10
2022-11-05T08:36:15.945Z,0.00
2022-11-05T08:38:45.385Z,0.10
2022-11-05T08:41:13.526Z,0.00
2022-11-05T08:43:41.700Z,0.10
2022-11-05T08:46:09.827Z,0.10
2022-11-05T08:48:38.082Z,0.25
2022-11-05T08:51:06.393Z,0.10
2022-11-05T08:53:34.608Z,0.10
2022-11-05T08:56:04.247Z,0.15
2022-11-05T08:58:33.045Z,0.25
2022-11-05T09:01:05.065Z,0.10
2022-11-05T09:03:33.810Z,0.20
2022-11-05T09:06:02.049Z,0.20
2022-11-05T09:08:30.142Z,0.17
2022-11-05T09:10:58.371Z,0.10
2022-11-05T09:13:28.419Z,0.20
2022-11-05T09:15:56.636Z,0.73
2022-11-05T09:18:24.817Z,0.10
2022-11-05T09:20:52.945Z,0.20
2022-11-05T09:23:21.149Z,0.20
2022-11-05T09:25:49.669Z,0.30
2022-11-05T09:28:20.563Z,0.10
2022-11-05T09:30:51.606Z,0.20
2022-11-05T09:33:21.851Z,0.10
2022-11-05T09:35:50.037Z,0.30
2022-11-05T09:38:18.412Z,0.40
2022-11-05T09:40:55.877Z,0.30
2022-11-05T09:43:31.908Z,0.30
2022-11-05T09:46:08.631Z,0.40
2022-11-05T09:48:39.612Z,0.38
2022-11-05T09:51:08.575Z,0.40
2022-11-05T09:53:41.674Z,0.30
2022-11-05T09:56:21.380Z,0.17
2022-11-05T09:58:53.144Z,0.32
2022-11-05T10:01:27.475Z,0.20
2022-11-05T10:03:59.034Z,0.40
2022-11-05T10:06:28.856Z,0.30
2022-11-05T10:09:04.003Z,0.40
2022-11-05T10:11:39.589Z,1.00
2022-11-05T10:14:15.169Z,1.02
2022-11-05T10:16:49.452Z,2.88
2022-11-05T10:19:24.367Z,3.10
2022-11-05T10:22:11.723Z,2.50
2022-11-05T10:24:43.911Z,3.10
2022-11-05T10:27:17.874Z,2.78
2022-11-05T10:29:46.446Z,2.22
2022-11-05T10:32:25.838Z,3.20
2022-11-05T10:34:57.377Z,3.13
2022-11-05T10:39:54.788Z,3.60
2022-11-05T10:42:48.479Z,3.55
2022-11-05T10:45:31.595Z,4.20
2022-11-05T10:48:16.851Z,3.58
2022-11-05T10:50:45.630Z,3.42
2022-11-05T10:53:16.532Z,4.00
2022-11-05T10:55:47.948Z,3.60
2022-11-05T11:01:04.266Z,4.45
2022-11-05T11:03:39.152Z,4.82
2022-11-05T11:06:17.594Z,4.15
2022-11-05T11:08:47.703Z,3.85
2022-11-05T11:11:31.498Z,5.40
2022-11-05T11:14:22.405Z,5.10
2022-11-05T11:16:57.344Z,3.83
2022-11-05T11:19:29.564Z,6.68
2022-11-05T11:22:19.368Z,6.00
2022-11-05T11:24:49.931Z,4.68
2022-11-05T11:27:25.463Z,5.60
2022-11-05T11:29:59.092Z,4.78
2022-11-05T11:32:33.743Z,4.47
2022-11-05T11:35:04.101Z,4.20
2022-11-05T11:37:36.021Z,4.20
2022-11-05T11:40:09.963Z,4.70
2022-11-05T11:42:42.208Z,3.97
2022-11-05T11:45:18.380Z,4.53
2022-11-05T11:47:48.270Z,4.68
2022-11-05T11:50:43.175Z,4.55
2022-11-05T11:53:25.750Z,3.38
2022-11-05T11:56:14.131Z,4.75
2022-11-05T11:58:44.930Z,5.20
2022-11-05T12:01:31.643Z,4.30
2022-11-05T12:04:16.430Z,5.53
2022-11-05T12:06:52.946Z,4.88
2022-11-05T12:09:40.738Z,4.20
2022-11-05T12:12:13.258Z,5.25
2022-11-05T12:14:50.097Z,4.82
2022-11-05T12:17:44.951Z,3.88
2022-11-05T12:20:35.270Z,4.50
2022-11-05T12:23:33.063Z,4.55
2022-11-05T12:26:08.734Z,5.85
2022-11-05T12:29:19.712Z,5.68
2022-11-05T12:31:54.887Z,5.22
2022-11-05T12:34:38.943Z,3.80
2022-11-05T12:37:22.780Z,4.18
2022-11-05T12:40:04.057Z,3.63
2022-11-05T12:42:46.817Z,4.85
2022-11-05T12:45:27.787Z,3.05
2022-11-05T12:48:12.159Z,3.90
2022-11-05T12:50:45.781Z,3.63
2022-11-05T12:53:45.236Z,4.38
2022-11-05T12:56:20.066Z,5.55
2022-11-05T12:58:53.825Z,4.72
2022-11-05T13:01:27.476Z,3.45
2022-11-05T13:04:00.248Z,3.60
2022-11-05T13:06:35.245Z,4.45
2022-11-05T13:09:08.170Z,4.00
2022-11-05T13:11:42.004Z,3.38
2022-11-05T13:14:15.521Z,4.25
2022-11-05T13:16:47.521Z,4.72
2022-11-05T13:19:20.229Z,3.20
2022-11-05T13:21:54.333Z,3.20
2022-11-05T13:24:26.423Z,3.47
2022-11-05T13:27:01.268Z,3.60
2022-11-05T13:29:34.157Z,4.50
2022-11-05T13:32:05.958Z,5.18
2022-11-05T13:34:37.559Z,3.67
2022-11-05T13:37:25.969Z,3.35
2022-11-05T13:39:58.066Z,3.75
2022-11-05T13:42:56.083Z,4.00
2022-11-05T13:46:02.816Z,3.55
2022-11-05T13:49:08.268Z,3.10
2022-11-05T13:51:52.744Z,3.65
2022-11-05T13:54:54.429Z,3.60
2022-11-05T13:57:49.361Z,2.97
2022-11-05T14:00:21.895Z,4.10
2022-11-05T14:02:55.014Z,4.13
2022-11-05T14:05:31.303Z,3.88
2022-11-05T14:08:02.203Z,4.47
2022-11-05T14:10:37.880Z,4.65
2022-11-05T14:13:23.429Z,3.60
2022-11-05T14:16:04.549Z,2.95
2022-11-05T14:18:44.988Z,3.67
2022-11-05T14:21:45.613Z,3.25
2022-11-05T14:24:42.760Z,3.83
2022-11-05T14:27:45.819Z,3.13
2022-11-05T14:30:44.950Z,3.75
2022-11-05T14:33:34.756Z,2.63
2022-11-05T14:36:31.935Z,3.28
2022-11-05T14:39:18.882Z,5.20
2022-11-05T14:41:59.035Z,3.55
2022-11-05T14:44:29.197Z,3.25
2022-11-05T14:47:01.088Z,4.80
2022-11-05T14:49:34.035Z,2.92
2022-11-05T14:52:08.392Z,3.45
2022-11-05T14:54:43.210Z,3.13
2022-11-05T14:57:14.693Z,4.07
2022-11-05T15:02:36.152Z,2.63
2022-11-05T15:05:41.144Z,2.60
2022-11-05T15:08:33.067Z,3.22
2022-11-05T15:11:10.677Z,3.97
2022-11-05T15:13:50.425Z,3.28
2022-11-05T15:16:27.821Z,3.17
2022-11-05T15:18:58.007Z,3.78
2022-11-05T15:21:32.578Z,3.80
2022-11-05T15:24:02.486Z,3.25
2022-11-05T15:26:41.959Z,3.63
2022-11-05T15:29:22.189Z,3.63
2022-11-05T15:31:51.615Z,3.65
2022-11-05T15:34:24.910Z,3.53
2022-11-05T15:36:56.964Z,3.08
2022-11-05T15:39:31.845Z,2.67
2022-11-05T15:42:02.856Z,3.58
2022-11-05T15:44:33.071Z,2.78
2022-11-05T15:47:25.988Z,3.28
2022-11-05T15:49:56.072Z,2.67
2022-11-05T15:52:32.153Z,3.00
2022-11-05T15:55:18.768Z,3.92
2022-11-05T15:57:50.935Z,3.38
2022-11-05T16:00:22.455Z,4.80
2022-11-05T16:02:57.180Z,2.92
2022-11-05T16:05:28.150Z,2.75
2022-11-05T16:07:59.552Z,2.95
2022-11-05T16:10:31.728Z,3.05
2022-11-05T16:13:24.450Z,3.42
2022-11-05T16:15:57.186Z,3.38
2022-11-05T16:18:30.786Z,3.78
2022-11-05T16:21:08.126Z,4.15
2022-11-05T16:23:46.507Z,5.18
2022-11-05T16:27:00.476Z,4.57
2022-11-05T16:29:24.209Z,3.90
2022-11-05T16:31:54.046Z,4.53
2022-11-05T16:34:28.124Z,5.35
2022-11-05T16:36:57.657Z,6.30
2022-11-05T16:39:27.510Z,5.32
2022-11-05T16:41:55.752Z,5.85
2022-11-05T16:44:24.352Z,5.20
2022-11-05T16:46:52.739Z,5.13
2022-11-05T16:49:21.071Z,6.03
2022-11-05T16:51:49.251Z,6.82
2022-11-05T16:54:17.455Z,7.18
2022-11-05T16:56:47.646Z,7.78
2022-11-05T16:59:15.825Z,7.82
2022-11-05T17:01:45.143Z,7.38
2022-11-05T17:04:14.383Z,7.18
2022-11-05T17:06:43.911Z,5.60
2022-11-05T17:09:12.000Z,5.22
2022-11-05T17:11:40.259Z,6.53
2022-11-05T17:14:14.089Z,6.22
2022-11-05T17:16:43.147Z,6.95
2022-11-05T17:19:16.780Z,6.82
2022-11-05T17:21:44.968Z,7.70
2022-11-05T17:24:13.207Z,5.95
2022-11-05T17:26:41.485Z,7.22
2022-11-05T17:29:11.010Z,5.55
2022-11-05T17:31:40.648Z,6.93
2022-11-05T17:34:10.318Z,6.20
2022-11-05T17:36:38.475Z,6.15
2022-11-05T17:39:06.683Z,8.05
2022-11-05T17:41:35.003Z,7.10
2022-11-05T17:44:03.195Z,7.25
2022-11-05T17:46:32.809Z,7.80
2022-11-05T17:49:00.995Z,8.25
2022-11-05T17:51:29.192Z,8.52
2022-11-05T17:53:57.399Z,7.72
2022-11-05T17:56:33.846Z,8.52
2022-11-05T17:59:04.125Z,7.90
2022-11-05T18:01:35.784Z,8.80
2022-11-05T18:04:09.036Z,7.93
2022-11-05T18:06:37.895Z,6.82
2022-11-05T18:09:06.469Z,7.55
2022-11-05T18:11:35.361Z,6.72
2022-11-05T18:14:04.136Z,9.35
2022-11-05T18:16:34.238Z,7.47
2022-11-05T18:19:02.765Z,7.00
2022-11-05T18:21:30.990Z,6.95
2022-11-05T18:23:59.309Z,10.63
2022-11-05T18:26:27.659Z,7.57
2022-11-05T18:28:55.779Z,6.78
2022-11-05T18:31:24.110Z,7.65
2022-11-05T18:33:57.597Z,7.57
2022-11-05T18:36:27.277Z,10.23
2022-11-05T18:38:55.599Z,7.43
2022-11-05T18:41:23.693Z,5.93
2022-11-05T18:43:51.924Z,6.25
2022-11-05T18:46:51.265Z,4.97
2022-11-05T18:49:11.460Z,4.00
2022-11-05T18:51:39.663Z,4.55
2022-11-05T18:54:08.670Z,4.78
2022-11-05T18:56:37.252Z,5.05
2022-11-05T18:59:34.583Z,3.83
2022-11-05T19:01:54.309Z,4.75
2022-11-05T19:04:24.057Z,5.50
2022-11-05T19:06:52.185Z,5.53
2022-11-05T19:09:20.962Z,6.78
2022-11-05T19:11:49.249Z,6.03
2022-11-05T19:14:17.440Z,5.43
2022-11-05T19:16:45.652Z,6.15
2022-11-05T19:19:13.789Z,4.82
2022-11-05T19:21:43.448Z,4.63
2022-11-05T19:24:16.695Z,5.03
2022-11-05T19:26:46.778Z,4.20
2022-11-05T19:29:15.030Z,4.05
2022-11-05T19:31:43.378Z,3.85
2022-11-05T19:34:13.571Z,3.92
2022-11-05T19:36:43.641Z,5.03
2022-11-05T19:39:14.930Z,3.17
2022-11-05T19:41:43.336Z,3.35
2022-11-05T19:44:11.800Z,3.75
2022-11-05T19:46:40.009Z,3.95
2022-11-05T19:49:08.144Z,3.75
2022-11-05T19:51:36.507Z,3.72
2022-11-05T19:54:06.905Z,5.60
2022-11-05T19:56:36.929Z,3.80
2022-11-05T19:59:07.016Z,3.30
2022-11-05T20:01:35.810Z,3.50
2022-11-05T20:04:04.907Z,3.83
2022-11-05T20:06:37.963Z,3.72
2022-11-05T20:09:27.461Z,3.50
2022-11-05T20:11:56.705Z,3.60
2022-11-05T20:14:26.275Z,3.35
2022-11-05T20:16:54.904Z,3.92
2022-11-05T20:19:24.290Z,4.57
2022-11-05T20:21:52.822Z,2.97
2022-11-05T20:24:25.472Z,3.95
2022-11-05T20:26:54.466Z,4.28
2022-11-05T20:29:22.999Z,4.20
2022-11-05T20:31:52.225Z,4.95
2022-11-05T20:34:20.556Z,4.28
2022-11-05T20:36:48.739Z,4.80
2022-11-05T20:39:17.144Z,5.95
2022-11-05T20:41:46.917Z,4.03
2022-11-05T20:44:15.625Z,4.38
2022-11-05T20:46:43.885Z,5.45
2022-11-05T20:49:12.125Z,4.05
2022-11-05T20:51:40.538Z,3.00
2022-11-05T20:54:08.877Z,3.20
2022-11-05T20:56:37.204Z,3.50
2022-11-05T20:59:07.060Z,3.17
2022-11-05T21:01:35.723Z,3.22
2022-11-05T21:04:05.084Z,3.75
2022-11-05T21:06:35.005Z,3.28
2022-11-05T21:09:03.711Z,4.50
2022-11-05T21:11:52.327Z,2.33
2022-11-05T21:14:21.907Z,3.17
2022-11-05T21:16:50.184Z,2.88
2022-11-05T21:19:18.332Z,3.45
2022-11-05T21:21:47.971Z,2.30
2022-11-05T21:24:16.322Z,2.15
2022-11-05T21:26:44.602Z,3.30
2022-11-05T21:29:12.905Z,2.38
2022-11-05T21:31:42.472Z,4.20
2022-11-05T21:34:10.949Z,3.45
2022-11-05T21:36:39.219Z,3.53
2022-11-05T21:39:13.031Z,2.95
2022-11-05T21:41:42.849Z,2.65
2022-11-05T21:44:11.409Z,2.30
2022-11-05T21:46:39.768Z,2.95
2022-11-05T21:49:09.471Z,3.65
2022-11-05T21:51:55.162Z,3.55
2022-11-05T21:54:40.740Z,3.17
2022-11-05T21:57:33.167Z,3.05
2022-11-05T22:00:01.925Z,2.92
2022-11-05T22:02:30.734Z,2.75
2022-11-05T22:05:00.528Z,4.20
2022-11-05T22:07:31.868Z,4.80
2022-11-05T22:10:00.608Z,3.67
2022-11-05T22:12:29.849Z,2.60
2022-11-05T22:14:58.444Z,3.25
2022-11-05T22:17:26.879Z,2.58
2022-11-05T22:19:55.120Z,2.80
2022-11-05T22:22:24.766Z,3.13
2022-11-05T22:24:53.193Z,2.88
2022-11-05T22:27:22.756Z,2.70
2022-11-05T22:29:51.701Z,2.42
2022-11-05T22:32:20.155Z,2.85
2022-11-05T22:34:49.778Z,3.65
2022-11-05T22:37:18.071Z,3.53
2022-11-05T22:39:47.750Z,2.97
2022-11-05T22:42:16.119Z,3.45
2022-11-05T22:44:44.347Z,3.63
2022-11-05T22:47:14.105Z,3.08
2022-11-05T22:49:42.252Z,2.78
2022-11-05T22:52:10.523Z,3.55
2022-11-05T22:54:39.546Z,2.97
2022-11-05T22:57:09.288Z,2.63
2022-11-05T22:59:37.515Z,3.83
2022-11-05T23:02:09.769Z,3.88
2022-11-05T23:04:39.112Z,3.28
2022-11-05T23:07:27.976Z,3.53
2022-11-05T23:10:14.372Z,3.22
2022-11-05T23:12:44.765Z,3.50
2022-11-05T23:15:33.642Z,3.15
2022-11-05T23:18:19.537Z,2.78
2022-11-05T23:21:04.719Z,3.20
2022-11-05T23:23:49.586Z,3.58
2022-11-05T23:26:35.357Z,3.30
2022-11-05T23:29:05.169Z,3.70
2022-11-05T23:31:51.141Z,3.15
2022-11-05T23:34:19.269Z,2.35
2022-11-05T23:37:04.922Z,2.53
2022-11-05T23:39:35.695Z,2.90
2022-11-05T23:42:23.815Z,2.63
2022-11-05T23:45:14.434Z,2.40
2022-11-05T23:48:00.494Z,2.83
2022-11-05T23:50:28.978Z,3.88
2022-11-05T23:52:57.232Z,2.88
2022-11-05T23:55:26.388Z,3.63
2022-11-05T23:57:54.898Z,3.75
